sensor_id;sensor_type;location;lat;lon;timestamp;P1;durP1;ratioP1;P2;durP2;ratioP2
54241;SDS011;40156;51.080;17.082;2022-11-21T00:00:23;150.63;;;47.15;;
54241;SDS011;40156;51.080;17.082;2022-11-21T00:03:01;155.52;;;49.95;;
54241;SDS011;40156;51.080;17.082;2022-11-21T00:05:29;166.75;;;55.10;;
54241;SDS011;40156;51.080;17.082;2022-11-21T00:07:57;177.85;;;57.20;;
54241;SDS011;40156;51.080;17.082;2022-11-21T00:10:25;168.50;;;59.22;;
54241;SDS011;40156;51.080;17.082;2022-11-21T00:12:56;155.38;;;53.65;;
54241;SDS011;40156;51.080;17.082;2022-11-21T00:15:24;180.77;;;60.45;;
54241;SDS011;40156;51.080;17.082;2022-11-21T00:21:09;129.07;;;48.67;;
54241;SDS011;40156;51.080;17.082;2022-11-21T00:23:39;139.02;;;48.10;;
54241;SDS011;40156;51.080;17.082;2022-11-21T00:26:07;120.95;;;44.03;;
54241;SDS011;40156;51.080;17.082;2022-11-21T00:28:35;110.22;;;40.05;;
54241;SDS011;40156;51.080;17.082;2022-11-21T00:31:03;125.00;;;41.78;;
54241;SDS011;40156;51.080;17.082;2022-11-21T00:33:31;110.22;;;41.63;;
54241;SDS011;40156;51.080;17.082;2022-11-21T00:36:04;105.07;;;39.03;;
54241;SDS011;40156;51.080;17.082;2022-11-21T00:38:32;118.28;;;40.47;;
54241;SDS011;40156;51.080;17.082;2022-11-21T00:40:59;104.68;;;35.88;;
54241;SDS011;40156;51.080;17.082;2022-11-21T00:43:27;98.55;;;34.72;;
54241;SDS011;40156;51.080;17.082;2022-11-21T00:45:56;96.18;;;39.22;;
54241;SDS011;40156;51.080;17.082;2022-11-21T00:48:23;94.28;;;35.70;;
54241;SDS011;40156;51.080;17.082;2022-11-21T00:50:58;89.72;;;33.42;;
54241;SDS011;40156;51.080;17.082;2022-11-21T00:53:26;82.93;;;33.58;;
54241;SDS011;40156;51.080;17.082;2022-11-21T00:55:54;98.75;;;37.60;;
54241;SDS011;40156;51.080;17.082;2022-11-21T00:58:21;92.72;;;33.03;;
54241;SDS011;40156;51.080;17.082;2022-11-21T01:00:49;156.23;;;45.50;;
54241;SDS011;40156;51.080;17.082;2022-11-21T01:03:16;85.32;;;32.35;;
54241;SDS011;40156;51.080;17.082;2022-11-21T01:05:44;86.60;;;32.55;;
54241;SDS011;40156;51.080;17.082;2022-11-21T01:08:12;90.35;;;32.80;;
54241;SDS011;40156;51.080;17.082;2022-11-21T01:10:39;83.38;;;32.25;;
54241;SDS011;40156;51.080;17.082;2022-11-21T01:13:07;82.25;;;32.72;;
54241;SDS011;40156;51.080;17.082;2022-11-21T01:15:34;77.68;;;28.65;;
54241;SDS011;40156;51.080;17.082;2022-11-21T01:18:02;81.10;;;30.92;;
54241;SDS011;40156;51.080;17.082;2022-11-21T01:20:30;105.78;;;34.38;;
54241;SDS011;40156;51.080;17.082;2022-11-21T01:23:05;88.85;;;31.73;;
54241;SDS011;40156;51.080;17.082;2022-11-21T01:25:33;96.13;;;31.95;;
54241;SDS011;40156;51.080;17.082;2022-11-21T01:28:00;94.75;;;32.90;;
54241;SDS011;40156;51.080;17.082;2022-11-21T01:30:28;93.18;;;31.63;;
54241;SDS011;40156;51.080;17.082;2022-11-21T01:32:55;92.57;;;30.48;;
54241;SDS011;40156;51.080;17.082;2022-11-21T01:35:42;77.10;;;28.75;;
54241;SDS011;40156;51.080;17.082;2022-11-21T01:38:27;101.20;;;33.78;;
54241;SDS011;40156;51.080;17.082;2022-11-21T01:41:15;84.63;;;32.50;;
54241;SDS011;40156;51.080;17.082;2022-11-21T01:43:43;72.72;;;26.80;;
54241;SDS011;40156;51.080;17.082;2022-11-21T01:46:11;79.13;;;27.65;;
54241;SDS011;40156;51.080;17.082;2022-11-21T01:56:35;67.25;;;25.35;;
54241;SDS011;40156;51.080;17.082;2022-11-21T01:59:03;64.22;;;26.00;;
54241;SDS011;40156;51.080;17.082;2022-11-21T02:01:33;82.63;;;31.55;;
54241;SDS011;40156;51.080;17.082;2022-11-21T02:04:01;69.40;;;28.98;;
54241;SDS011;40156;51.080;17.082;2022-11-21T02:06:29;73.93;;;29.38;;
54241;SDS011;40156;51.080;17.082;2022-11-21T02:08:57;77.47;;;29.45;;
54241;SDS011;40156;51.080;17.082;2022-11-21T02:11:29;78.20;;;31.38;;
54241;SDS011;40156;51.080;17.082;2022-11-21T02:13:58;74.47;;;30.35;;
54241;SDS011;40156;51.080;17.082;2022-11-21T02:16:26;76.75;;;26.13;;
54241;SDS011;40156;51.080;17.082;2022-11-21T02:18:53;66.47;;;26.67;;
54241;SDS011;40156;51.080;17.082;2022-11-21T02:24:05;64.20;;;27.00;;
54241;SDS011;40156;51.080;17.082;2022-11-21T02:26:35;63.95;;;24.60;;
54241;SDS011;40156;51.080;17.082;2022-11-21T02:29:03;71.35;;;26.42;;
54241;SDS011;40156;51.080;17.082;2022-11-21T02:31:31;73.90;;;29.08;;
54241;SDS011;40156;51.080;17.082;2022-11-21T02:33:58;67.25;;;27.40;;
54241;SDS011;40156;51.080;17.082;2022-11-21T02:39:04;59.55;;;25.27;;
54241;SDS011;40156;51.080;17.082;2022-11-21T02:41:31;60.80;;;25.77;;
54241;SDS011;40156;51.080;17.082;2022-11-21T02:44:03;65.20;;;26.33;;
54241;SDS011;40156;51.080;17.082;2022-11-21T02:46:32;66.45;;;26.17;;
54241;SDS011;40156;51.080;17.082;2022-11-21T02:49:02;65.75;;;24.60;;
54241;SDS011;40156;51.080;17.082;2022-11-21T02:55:12;62.15;;;25.13;;
54241;SDS011;40156;51.080;17.082;2022-11-21T02:57:40;60.28;;;22.40;;
54241;SDS011;40156;51.080;17.082;2022-11-21T03:00:08;55.45;;;23.13;;
54241;SDS011;40156;51.080;17.082;2022-11-21T03:05:50;60.58;;;24.80;;
54241;SDS011;40156;51.080;17.082;2022-11-21T03:11:04;60.20;;;23.55;;
54241;SDS011;40156;51.080;17.082;2022-11-21T03:13:32;57.92;;;24.13;;
54241;SDS011;40156;51.080;17.082;2022-11-21T03:16:00;62.38;;;24.58;;
54241;SDS011;40156;51.080;17.082;2022-11-21T03:22:01;58.33;;;24.27;;
54241;SDS011;40156;51.080;17.082;2022-11-21T03:35:17;53.72;;;23.05;;
54241;SDS011;40156;51.080;17.082;2022-11-21T03:37:46;58.53;;;23.60;;
54241;SDS011;40156;51.080;17.082;2022-11-21T03:40:15;58.08;;;22.60;;
54241;SDS011;40156;51.080;17.082;2022-11-21T03:42:43;57.65;;;24.20;;
54241;SDS011;40156;51.080;17.082;2022-11-21T03:45:11;56.78;;;22.92;;
54241;SDS011;40156;51.080;17.082;2022-11-21T03:47:39;61.90;;;23.63;;
54241;SDS011;40156;51.080;17.082;2022-11-21T03:50:07;56.10;;;23.55;;
54241;SDS011;40156;51.080;17.082;2022-11-21T03:52:35;56.15;;;22.30;;
54241;SDS011;40156;51.080;17.082;2022-11-21T03:55:03;58.28;;;22.20;;
54241;SDS011;40156;51.080;17.082;2022-11-21T03:57:31;55.95;;;22.25;;
54241;SDS011;40156;51.080;17.082;2022-11-21T03:59:59;55.30;;;24.58;;
54241;SDS011;40156;51.080;17.082;2022-11-21T04:02:27;55.50;;;22.52;;
54241;SDS011;40156;51.080;17.082;2022-11-21T04:04:55;55.88;;;23.42;;
54241;SDS011;40156;51.080;17.082;2022-11-21T04:07:23;56.40;;;22.10;;
54241;SDS011;40156;51.080;17.082;2022-11-21T04:09:51;52.35;;;22.50;;
54241;SDS011;40156;51.080;17.082;2022-11-21T04:15:50;55.30;;;24.75;;
54241;SDS011;40156;51.080;17.082;2022-11-21T04:18:19;57.33;;;24.13;;
54241;SDS011;40156;51.080;17.082;2022-11-21T04:20:47;63.45;;;25.92;;
54241;SDS011;40156;51.080;17.082;2022-11-21T04:23:15;61.95;;;24.65;;
54241;SDS011;40156;51.080;17.082;2022-11-21T04:25:43;59.95;;;24.90;;
54241;SDS011;40156;51.080;17.082;2022-11-21T04:28:11;57.50;;;24.00;;
54241;SDS011;40156;51.080;17.082;2022-11-21T04:30:38;61.70;;;26.13;;
54241;SDS011;40156;51.080;17.082;2022-11-21T04:33:06;59.38;;;25.10;;
54241;SDS011;40156;51.080;17.082;2022-11-21T04:35:34;65.28;;;26.52;;
54241;SDS011;40156;51.080;17.082;2022-11-21T04:38:01;65.82;;;27.38;;
54241;SDS011;40156;51.080;17.082;2022-11-21T04:40:29;67.47;;;27.92;;
54241;SDS011;40156;51.080;17.082;2022-11-21T04:42:56;59.05;;;25.10;;
54241;SDS011;40156;51.080;17.082;2022-11-21T04:45:24;62.78;;;26.05;;
54241;SDS011;40156;51.080;17.082;2022-11-21T04:47:52;61.90;;;25.13;;
54241;SDS011;40156;51.080;17.082;2022-11-21T04:50:19;62.17;;;26.67;;
54241;SDS011;40156;51.080;17.082;2022-11-21T04:52:49;62.10;;;23.85;;
54241;SDS011;40156;51.080;17.082;2022-11-21T04:58:21;56.47;;;24.27;;
54241;SDS011;40156;51.080;17.082;2022-11-21T05:00:49;58.05;;;24.63;;
54241;SDS011;40156;51.080;17.082;2022-11-21T05:03:17;56.15;;;23.50;;
54241;SDS011;40156;51.080;17.082;2022-11-21T05:05:44;62.78;;;25.35;;
54241;SDS011;40156;51.080;17.082;2022-11-21T05:08:12;60.83;;;24.40;;
54241;SDS011;40156;51.080;17.082;2022-11-21T05:10:39;60.97;;;23.50;;
54241;SDS011;40156;51.080;17.082;2022-11-21T05:13:08;59.65;;;23.08;;
54241;SDS011;40156;51.080;17.082;2022-11-21T05:15:35;55.10;;;23.20;;
54241;SDS011;40156;51.080;17.082;2022-11-21T05:18:03;57.42;;;23.42;;
54241;SDS011;40156;51.080;17.082;2022-11-21T05:20:30;54.42;;;23.40;;
54241;SDS011;40156;51.080;17.082;2022-11-21T05:25:30;52.60;;;22.05;;
54241;SDS011;40156;51.080;17.082;2022-11-21T05:28:01;53.88;;;22.85;;
54241;SDS011;40156;51.080;17.082;2022-11-21T05:30:29;50.75;;;22.17;;
54241;SDS011;40156;51.080;17.082;2022-11-21T05:32:57;53.97;;;22.92;;
54241;SDS011;40156;51.080;17.082;2022-11-21T05:35:25;51.15;;;21.35;;
54241;SDS011;40156;51.080;17.082;2022-11-21T05:37:56;48.08;;;20.98;;
54241;SDS011;40156;51.080;17.082;2022-11-21T05:40:25;51.90;;;20.90;;
54241;SDS011;40156;51.080;17.082;2022-11-21T05:42:53;51.58;;;21.55;;
54241;SDS011;40156;51.080;17.082;2022-11-21T05:45:21;51.35;;;19.88;;
54241;SDS011;40156;51.080;17.082;2022-11-21T05:47:49;52.63;;;22.15;;
54241;SDS011;40156;51.080;17.082;2022-11-21T05:50:17;50.15;;;21.40;;
54241;SDS011;40156;51.080;17.082;2022-11-21T05:52:45;46.22;;;18.55;;
54241;SDS011;40156;51.080;17.082;2022-11-21T05:55:13;52.17;;;20.58;;
54241;SDS011;40156;51.080;17.082;2022-11-21T05:57:42;54.47;;;21.77;;
54241;SDS011;40156;51.080;17.082;2022-11-21T06:00:10;48.22;;;19.40;;
54241;SDS011;40156;51.080;17.082;2022-11-21T06:02:39;52.97;;;21.05;;
54241;SDS011;40156;51.080;17.082;2022-11-21T06:05:07;53.08;;;21.23;;
54241;SDS011;40156;51.080;17.082;2022-11-21T06:07:35;49.65;;;19.88;;
54241;SDS011;40156;51.080;17.082;2022-11-21T06:10:03;49.83;;;20.33;;
54241;SDS011;40156;51.080;17.082;2022-11-21T06:12:32;47.90;;;20.40;;
54241;SDS011;40156;51.080;17.082;2022-11-21T06:15:00;47.55;;;20.35;;
54241;SDS011;40156;51.080;17.082;2022-11-21T06:17:28;52.15;;;20.65;;
54241;SDS011;40156;51.080;17.082;2022-11-21T06:19:56;52.05;;;20.63;;
54241;SDS011;40156;51.080;17.082;2022-11-21T06:22:24;59.83;;;22.00;;
54241;SDS011;40156;51.080;17.082;2022-11-21T06:24:52;52.45;;;19.67;;
54241;SDS011;40156;51.080;17.082;2022-11-21T06:27:20;49.33;;;19.25;;
54241;SDS011;40156;51.080;17.082;2022-11-21T06:29:48;51.17;;;20.33;;
54241;SDS011;40156;51.080;17.082;2022-11-21T06:32:16;44.00;;;19.10;;
54241;SDS011;40156;51.080;17.082;2022-11-21T06:34:44;48.63;;;20.55;;
54241;SDS011;40156;51.080;17.082;2022-11-21T06:37:13;49.85;;;19.13;;
54241;SDS011;40156;51.080;17.082;2022-11-21T06:39:40;50.35;;;19.52;;
54241;SDS011;40156;51.080;17.082;2022-11-21T06:42:09;48.20;;;19.42;;
54241;SDS011;40156;51.080;17.082;2022-11-21T06:44:37;45.40;;;19.50;;
54241;SDS011;40156;51.080;17.082;2022-11-21T06:47:05;45.45;;;17.90;;
54241;SDS011;40156;51.080;17.082;2022-11-21T06:49:33;47.58;;;19.25;;
54241;SDS011;40156;51.080;17.082;2022-11-21T06:52:01;44.38;;;18.70;;
54241;SDS011;40156;51.080;17.082;2022-11-21T06:54:29;48.95;;;17.83;;
54241;SDS011;40156;51.080;17.082;2022-11-21T06:56:58;45.50;;;18.20;;
54241;SDS011;40156;51.080;17.082;2022-11-21T06:59:26;41.17;;;17.98;;
54241;SDS011;40156;51.080;17.082;2022-11-21T07:05:32;43.20;;;19.25;;
54241;SDS011;40156;51.080;17.082;2022-11-21T07:08:00;43.40;;;18.58;;
54241;SDS011;40156;51.080;17.082;2022-11-21T07:10:29;41.10;;;16.30;;
54241;SDS011;40156;51.080;17.082;2022-11-21T07:12:58;42.65;;;18.35;;
54241;SDS011;40156;51.080;17.082;2022-11-21T07:15:27;78.88;;;28.85;;
54241;SDS011;40156;51.080;17.082;2022-11-21T07:21:49;43.83;;;18.23;;
54241;SDS011;40156;51.080;17.082;2022-11-21T07:24:17;48.88;;;18.40;;
54241;SDS011;40156;51.080;17.082;2022-11-21T07:26:45;42.65;;;18.98;;
54241;SDS011;40156;51.080;17.082;2022-11-21T07:29:13;40.65;;;17.17;;
54241;SDS011;40156;51.080;17.082;2022-11-21T07:31:54;46.47;;;17.50;;
54241;SDS011;40156;51.080;17.082;2022-11-21T07:34:22;42.05;;;17.00;;
54241;SDS011;40156;51.080;17.082;2022-11-21T07:36:50;43.63;;;17.10;;
54241;SDS011;40156;51.080;17.082;2022-11-21T07:39:18;43.53;;;18.17;;
54241;SDS011;40156;51.080;17.082;2022-11-21T07:41:46;35.47;;;16.50;;
54241;SDS011;40156;51.080;17.082;2022-11-21T07:44:15;37.92;;;15.05;;
54241;SDS011;40156;51.080;17.082;2022-11-21T07:46:42;45.53;;;18.25;;
54241;SDS011;40156;51.080;17.082;2022-11-21T07:49:11;42.83;;;16.85;;
54241;SDS011;40156;51.080;17.082;2022-11-21T07:51:39;40.50;;;17.73;;
54241;SDS011;40156;51.080;17.082;2022-11-21T07:54:07;42.67;;;16.73;;
54241;SDS011;40156;51.080;17.082;2022-11-21T07:56:35;39.33;;;15.13;;
54241;SDS011;40156;51.080;17.082;2022-11-21T07:59:03;39.53;;;16.27;;
54241;SDS011;40156;51.080;17.082;2022-11-21T08:01:31;39.03;;;15.80;;
54241;SDS011;40156;51.080;17.082;2022-11-21T08:03:59;40.55;;;16.45;;
54241;SDS011;40156;51.080;17.082;2022-11-21T08:06:27;40.90;;;15.98;;
54241;SDS011;40156;51.080;17.082;2022-11-21T08:08:55;38.22;;;16.02;;
54241;SDS011;40156;51.080;17.082;2022-11-21T08:11:23;39.45;;;15.30;;
54241;SDS011;40156;51.080;17.082;2022-11-21T08:13:52;43.35;;;16.67;;
54241;SDS011;40156;51.080;17.082;2022-11-21T08:16:19;42.17;;;17.35;;
54241;SDS011;40156;51.080;17.082;2022-11-21T08:18:48;47.22;;;18.08;;
54241;SDS011;40156;51.080;17.082;2022-11-21T08:21:16;50.13;;;18.17;;
54241;SDS011;40156;51.080;17.082;2022-11-21T08:23:47;62.05;;;22.92;;
54241;SDS011;40156;51.080;17.082;2022-11-21T08:26:15;51.35;;;20.73;;
54241;SDS011;40156;51.080;17.082;2022-11-21T08:28:43;47.38;;;20.38;;
54241;SDS011;40156;51.080;17.082;2022-11-21T08:31:11;63.75;;;29.90;;
54241;SDS011;40156;51.080;17.082;2022-11-21T08:33:39;34.13;;;15.55;;
54241;SDS011;40156;51.080;17.082;2022-11-21T08:36:07;34.22;;;13.43;;
54241;SDS011;40156;51.080;17.082;2022-11-21T08:38:36;23.63;;;11.57;;
54241;SDS011;40156;51.080;17.082;2022-11-21T08:41:04;25.10;;;10.35;;
54241;SDS011;40156;51.080;17.082;2022-11-21T08:43:32;23.80;;;10.48;;
54241;SDS011;40156;51.080;17.082;2022-11-21T08:46:00;22.50;;;9.52;;
54241;SDS011;40156;51.080;17.082;2022-11-21T08:48:28;25.67;;;10.73;;
54241;SDS011;40156;51.080;17.082;2022-11-21T08:50:56;27.88;;;10.65;;
54241;SDS011;40156;51.080;17.082;2022-11-21T08:53:24;26.10;;;11.13;;
54241;SDS011;40156;51.080;17.082;2022-11-21T08:55:53;25.95;;;10.45;;
54241;SDS011;40156;51.080;17.082;2022-11-21T08:58:21;27.58;;;12.68;;
54241;SDS011;40156;51.080;17.082;2022-11-21T09:00:49;25.55;;;10.27;;
54241;SDS011;40156;51.080;17.082;2022-11-21T09:03:17;25.85;;;10.05;;
54241;SDS011;40156;51.080;17.082;2022-11-21T09:05:52;25.13;;;10.07;;
54241;SDS011;40156;51.080;17.082;2022-11-21T09:08:26;22.83;;;9.95;;
54241;SDS011;40156;51.080;17.082;2022-11-21T09:10:56;24.17;;;9.82;;
54241;SDS011;40156;51.080;17.082;2022-11-21T09:13:24;20.98;;;8.95;;
54241;SDS011;40156;51.080;17.082;2022-11-21T09:15:53;17.73;;;8.43;;
54241;SDS011;40156;51.080;17.082;2022-11-21T09:18:22;20.33;;;8.57;;
54241;SDS011;40156;51.080;17.082;2022-11-21T09:20:50;24.45;;;10.18;;
54241;SDS011;40156;51.080;17.082;2022-11-21T09:23:21;21.10;;;8.90;;
54241;SDS011;40156;51.080;17.082;2022-11-21T09:25:49;22.17;;;8.43;;
54241;SDS011;40156;51.080;17.082;2022-11-21T09:28:17;18.40;;;8.20;;
54241;SDS011;40156;51.080;17.082;2022-11-21T09:30:45;24.10;;;8.70;;
54241;SDS011;40156;51.080;17.082;2022-11-21T09:33:14;28.35;;;9.68;;
54241;SDS011;40156;51.080;17.082;2022-11-21T09:35:43;19.08;;;9.32;;
54241;SDS011;40156;51.080;17.082;2022-11-21T09:38:11;24.83;;;10.40;;
54241;SDS011;40156;51.080;17.082;2022-11-21T09:40:40;18.88;;;8.82;;
54241;SDS011;40156;51.080;17.082;2022-11-21T09:45:49;20.35;;;8.35;;
54241;SDS011;40156;51.080;17.082;2022-11-21T09:48:21;23.05;;;9.27;;
54241;SDS011;40156;51.080;17.082;2022-11-21T09:50:58;26.63;;;10.23;;
54241;SDS011;40156;51.080;17.082;2022-11-21T09:53:56;23.85;;;10.07;;
54241;SDS011;40156;51.080;17.082;2022-11-21T09:56:29;17.88;;;8.18;;
54241;SDS011;40156;51.080;17.082;2022-11-21T10:01:37;23.40;;;8.60;;
54241;SDS011;40156;51.080;17.082;2022-11-21T10:04:05;16.75;;;8.07;;
54241;SDS011;40156;51.080;17.082;2022-11-21T10:12:32;19.27;;;8.15;;
54241;SDS011;40156;51.080;17.082;2022-11-21T10:17:53;20.83;;;8.73;;
54241;SDS011;40156;51.080;17.082;2022-11-21T10:26:22;18.52;;;7.97;;
54241;SDS011;40156;51.080;17.082;2022-11-21T10:29:11;38.38;;;17.60;;
54241;SDS011;40156;51.080;17.082;2022-11-21T10:31:49;21.23;;;10.13;;
54241;SDS011;40156;51.080;17.082;2022-11-21T10:34:20;38.88;;;14.55;;
54241;SDS011;40156;51.080;17.082;2022-11-21T10:36:54;18.38;;;7.97;;
54241;SDS011;40156;51.080;17.082;2022-11-21T10:40:38;13.10;;;6.10;;
54241;SDS011;40156;51.080;17.082;2022-11-21T10:43:30;14.35;;;6.13;;
54241;SDS011;40156;51.080;17.082;2022-11-21T10:45:47;12.82;;;5.40;;
54241;SDS011;40156;51.080;17.082;2022-11-21T10:48:16;12.02;;;5.03;;
54241;SDS011;40156;51.080;17.082;2022-11-21T10:53:45;13.23;;;4.80;;
54241;SDS011;40156;51.080;17.082;2022-11-21T10:56:22;13.90;;;6.32;;
54241;SDS011;40156;51.080;17.082;2022-11-21T10:58:55;13.18;;;5.75;;
54241;SDS011;40156;51.080;17.082;2022-11-21T11:01:31;15.13;;;6.63;;
54241;SDS011;40156;51.080;17.082;2022-11-21T11:08:27;11.48;;;5.50;;
54241;SDS011;40156;51.080;17.082;2022-11-21T11:11:02;13.43;;;5.63;;
54241;SDS011;40156;51.080;17.082;2022-11-21T11:13:30;11.00;;;5.50;;
54241;SDS011;40156;51.080;17.082;2022-11-21T11:16:17;14.88;;;5.88;;
54241;SDS011;40156;51.080;17.082;2022-11-21T11:18:46;15.18;;;5.70;;
54241;SDS011;40156;51.080;17.082;2022-11-21T11:21:18;8.02;;;4.70;;
54241;SDS011;40156;51.080;17.082;2022-11-21T11:23:47;13.30;;;6.57;;
54241;SDS011;40156;51.080;17.082;2022-11-21T11:28:46;14.80;;;5.82;;
54241;SDS011;40156;51.080;17.082;2022-11-21T11:31:14;13.38;;;7.68;;
54241;SDS011;40156;51.080;17.082;2022-11-21T11:44:35;15.77;;;8.10;;
54241;SDS011;40156;51.080;17.082;2022-11-21T11:47:11;11.48;;;6.28;;
54241;SDS011;40156;51.080;17.082;2022-11-21T11:49:44;13.40;;;6.70;;
54241;SDS011;40156;51.080;17.082;2022-11-21T11:52:14;28.38;;;15.00;;
54241;SDS011;40156;51.080;17.082;2022-11-21T11:54:45;26.10;;;15.65;;
54241;SDS011;40156;51.080;17.082;2022-11-21T11:57:15;31.20;;;12.90;;
54241;SDS011;40156;51.080;17.082;2022-11-21T11:59:47;30.15;;;13.13;;
54241;SDS011;40156;51.080;17.082;2022-11-21T12:02:28;29.63;;;11.18;;
54241;SDS011;40156;51.080;17.082;2022-11-21T12:05:04;17.90;;;8.52;;
54241;SDS011;40156;51.080;17.082;2022-11-21T12:07:40;28.85;;;12.77;;
54241;SDS011;40156;51.080;17.082;2022-11-21T12:10:31;33.30;;;14.32;;
54241;SDS011;40156;51.080;17.082;2022-11-21T12:13:04;11.60;;;5.85;;
54241;SDS011;40156;51.080;17.082;2022-11-21T12:15:43;11.48;;;5.60;;
54241;SDS011;40156;51.080;17.082;2022-11-21T12:23:14;17.27;;;7.68;;
54241;SDS011;40156;51.080;17.082;2022-11-21T12:25:49;14.35;;;6.57;;
54241;SDS011;40156;51.080;17.082;2022-11-21T12:28:45;9.13;;;4.68;;
54241;SDS011;40156;51.080;17.082;2022-11-21T12:34:06;12.85;;;4.93;;
54241;SDS011;40156;51.080;17.082;2022-11-21T12:47:12;12.88;;;6.28;;
54241;SDS011;40156;51.080;17.082;2022-11-21T12:50:02;19.20;;;7.35;;
54241;SDS011;40156;51.080;17.082;2022-11-21T12:52:40;17.20;;;7.57;;
54241;SDS011;40156;51.080;17.082;2022-11-21T12:55:17;13.55;;;7.38;;
54241;SDS011;40156;51.080;17.082;2022-11-21T13:03:48;16.58;;;7.97;;
54241;SDS011;40156;51.080;17.082;2022-11-21T13:05:55;18.38;;;7.85;;
54241;SDS011;40156;51.080;17.082;2022-11-21T13:08:24;20.98;;;8.80;;
54241;SDS011;40156;51.080;17.082;2022-11-21T13:13:30;23.33;;;9.25;;
54241;SDS011;40156;51.080;17.082;2022-11-21T13:22:02;18.83;;;8.60;;
54241;SDS011;40156;51.080;17.082;2022-11-21T13:45:52;12.40;;;6.13;;
54241;SDS011;40156;51.080;17.082;2022-11-21T14:05:28;11.23;;;6.03;;
54241;SDS011;40156;51.080;17.082;2022-11-21T14:08:20;14.50;;;6.78;;
54241;SDS011;40156;51.080;17.082;2022-11-21T14:10:49;15.98;;;7.38;;
54241;SDS011;40156;51.080;17.082;2022-11-21T14:18:24;16.45;;;7.00;;
54241;SDS011;40156;51.080;17.082;2022-11-21T14:23:20;16.05;;;7.75;;
54241;SDS011;40156;51.080;17.082;2022-11-21T14:25:49;14.10;;;7.35;;
54241;SDS011;40156;51.080;17.082;2022-11-21T14:28:23;15.20;;;7.80;;
54241;SDS011;40156;51.080;17.082;2022-11-21T14:30:57;16.63;;;7.80;;
54241;SDS011;40156;51.080;17.082;2022-11-21T14:33:34;17.97;;;7.10;;
54241;SDS011;40156;51.080;17.082;2022-11-21T14:36:03;17.02;;;7.43;;
54241;SDS011;40156;51.080;17.082;2022-11-21T14:38:33;17.52;;;7.35;;
54241;SDS011;40156;51.080;17.082;2022-11-21T14:46:34;15.80;;;8.20;;
54241;SDS011;40156;51.080;17.082;2022-11-21T14:54:29;22.50;;;9.00;;
54241;SDS011;40156;51.080;17.082;2022-11-21T14:56:59;20.67;;;8.85;;
54241;SDS011;40156;51.080;17.082;2022-11-21T15:01:56;19.55;;;8.85;;
54241;SDS011;40156;51.080;17.082;2022-11-21T15:04:26;21.48;;;9.88;;
54241;SDS011;40156;51.080;17.082;2022-11-21T15:06:54;23.60;;;9.65;;
54241;SDS011;40156;51.080;17.082;2022-11-21T15:09:22;23.92;;;9.73;;
54241;SDS011;40156;51.080;17.082;2022-11-21T15:12:10;25.17;;;10.70;;
54241;SDS011;40156;51.080;17.082;2022-11-21T15:14:40;26.10;;;11.70;;
54241;SDS011;40156;51.080;17.082;2022-11-21T15:17:13;28.65;;;11.90;;
54241;SDS011;40156;51.080;17.082;2022-11-21T15:19:42;28.88;;;12.13;;
54241;SDS011;40156;51.080;17.082;2022-11-21T15:22:22;27.13;;;12.43;;
54241;SDS011;40156;51.080;17.082;2022-11-21T15:25:03;27.77;;;12.57;;
54241;SDS011;40156;51.080;17.082;2022-11-21T15:31:14;29.58;;;13.10;;
54241;SDS011;40156;51.080;17.082;2022-11-21T15:33:52;29.10;;;13.60;;
54241;SDS011;40156;51.080;17.082;2022-11-21T15:40:02;24.20;;;11.73;;
54241;SDS011;40156;51.080;17.082;2022-11-21T15:45:00;26.30;;;12.18;;
54241;SDS011;40156;51.080;17.082;2022-11-21T15:47:29;23.35;;;11.60;;
54241;SDS011;40156;51.080;17.082;2022-11-21T15:49:56;25.00;;;11.45;;
54241;SDS011;40156;51.080;17.082;2022-11-21T15:52:24;27.13;;;12.93;;
54241;SDS011;40156;51.080;17.082;2022-11-21T15:54:52;28.23;;;12.70;;
54241;SDS011;40156;51.080;17.082;2022-11-21T15:57:19;27.52;;;13.57;;
54241;SDS011;40156;51.080;17.082;2022-11-21T15:59:51;26.85;;;11.75;;
54241;SDS011;40156;51.080;17.082;2022-11-21T16:02:19;26.08;;;11.68;;
54241;SDS011;40156;51.080;17.082;2022-11-21T16:04:47;24.30;;;10.73;;
54241;SDS011;40156;51.080;17.082;2022-11-21T16:07:16;27.92;;;11.05;;
54241;SDS011;40156;51.080;17.082;2022-11-21T16:09:43;25.48;;;11.75;;
54241;SDS011;40156;51.080;17.082;2022-11-21T16:12:11;26.67;;;11.65;;
54241;SDS011;40156;51.080;17.082;2022-11-21T16:14:38;27.55;;;12.73;;
54241;SDS011;40156;51.080;17.082;2022-11-21T16:17:06;26.38;;;13.07;;
54241;SDS011;40156;51.080;17.082;2022-11-21T16:19:52;29.50;;;12.52;;
54241;SDS011;40156;51.080;17.082;2022-11-21T16:22:20;26.45;;;11.05;;
54241;SDS011;40156;51.080;17.082;2022-11-21T16:24:55;27.83;;;11.93;;
54241;SDS011;40156;51.080;17.082;2022-11-21T16:27:23;27.73;;;11.75;;
54241;SDS011;40156;51.080;17.082;2022-11-21T16:29:50;24.58;;;11.45;;
54241;SDS011;40156;51.080;17.082;2022-11-21T16:32:18;28.67;;;12.05;;
54241;SDS011;40156;51.080;17.082;2022-11-21T16:34:46;24.80;;;10.88;;
54241;SDS011;40156;51.080;17.082;2022-11-21T16:37:14;25.40;;;10.77;;
54241;SDS011;40156;51.080;17.082;2022-11-21T16:39:42;32.50;;;11.93;;
54241;SDS011;40156;51.080;17.082;2022-11-21T16:42:09;23.38;;;9.63;;
54241;SDS011;40156;51.080;17.082;2022-11-21T16:44:37;20.80;;;9.45;;
54241;SDS011;40156;51.080;17.082;2022-11-21T16:47:05;20.80;;;10.35;;
54241;SDS011;40156;51.080;17.082;2022-11-21T16:49:35;21.48;;;9.98;;
54241;SDS011;40156;51.080;17.082;2022-11-21T16:52:02;20.73;;;8.93;;
54241;SDS011;40156;51.080;17.082;2022-11-21T16:54:30;19.85;;;9.07;;
54241;SDS011;40156;51.080;17.082;2022-11-21T16:56:58;20.90;;;9.30;;
54241;SDS011;40156;51.080;17.082;2022-11-21T16:59:25;19.90;;;9.02;;
54241;SDS011;40156;51.080;17.082;2022-11-21T17:01:54;18.83;;;8.68;;
54241;SDS011;40156;51.080;17.082;2022-11-21T17:04:21;17.52;;;8.40;;
54241;SDS011;40156;51.080;17.082;2022-11-21T17:06:49;19.13;;;8.18;;
54241;SDS011;40156;51.080;17.082;2022-11-21T17:09:16;20.08;;;10.20;;
54241;SDS011;40156;51.080;17.082;2022-11-21T17:11:44;20.30;;;8.25;;
54241;SDS011;40156;51.080;17.082;2022-11-21T17:14:11;24.30;;;8.77;;
54241;SDS011;40156;51.080;17.082;2022-11-21T17:16:39;20.92;;;9.50;;
54241;SDS011;40156;51.080;17.082;2022-11-21T17:19:08;19.63;;;9.23;;
54241;SDS011;40156;51.080;17.082;2022-11-21T17:21:37;21.88;;;8.75;;
54241;SDS011;40156;51.080;17.082;2022-11-21T17:24:04;17.67;;;8.82;;
54241;SDS011;40156;51.080;17.082;2022-11-21T17:26:33;22.77;;;9.38;;
54241;SDS011;40156;51.080;17.082;2022-11-21T17:29:01;22.27;;;9.90;;
54241;SDS011;40156;51.080;17.082;2022-11-21T17:31:29;19.33;;;9.05;;
54241;SDS011;40156;51.080;17.082;2022-11-21T17:33:57;22.70;;;9.63;;
54241;SDS011;40156;51.080;17.082;2022-11-21T17:39:57;23.30;;;10.43;;
54241;SDS011;40156;51.080;17.082;2022-11-21T17:42:25;27.70;;;11.45;;
54241;SDS011;40156;51.080;17.082;2022-11-21T17:44:53;23.35;;;9.88;;
54241;SDS011;40156;51.080;17.082;2022-11-21T17:47:20;27.10;;;10.85;;
54241;SDS011;40156;51.080;17.082;2022-11-21T17:49:48;23.92;;;11.40;;